Time;durP1;ratioP1;P1;durP2;ratioP2;P2;SDS_P1;SDS_P2;PMS_P1;PMS_P2;Temp;Humidity;BMP_temperature;BMP_pressure;BME280_temperature;BME280_humidity;BME280_pressure;Samples;Min_cycle;Max_cycle;Signal;HPM_P1;HPM_P2
2021/12/30 00:02:17;;;;;;;41.33;6.55;;;;;;;;;;5135879;27;20049;-81
2021/12/30 00:04:43;;;;;;;43.08;7.38;;;;;;;;;;5154277;27;20082;-82
2021/12/30 00:07:09;;;;;;;41.42;6.93;;;;;;;;;;5154623;27;20039;-80
2021/12/30 00:09:37;;;;;;;47.95;7.47;;;;;;;;;;5154282;27;20047;-80
2021/12/30 00:12:03;;;;;;;44.55;7.22;;;;;;;;;;5154303;27;20039;-80
2021/12/30 00:14:30;;;;;;;50.25;7.57;;;;;;;;;;5135759;27;20404;-81
2021/12/30 00:16:56;;;;;;;44.63;6.72;;;;;;;;;;5154122;27;20543;-81
2021/12/30 00:19:22;;;;;;;41.75;7.25;;;;;;;;;;5154384;27;20129;-81
2021/12/30 00:21:48;;;;;;;44.15;7.28;;;;;;;;;;5154156;27;20046;-81
2021/12/30 00:24:16;;;;;;;49.00;6.88;;;;;;;;;;5154194;27;20183;-80
2021/12/30 00:26:42;;;;;;;48.15;6.93;;;;;;;;;;5158137;27;20047;-82
2021/12/30 00:29:08;;;;;;;54.00;7.78;;;;;;;;;;5139909;27;20133;-80
2021/12/30 00:31:34;;;;;;;49.83;7.10;;;;;;;;;;5157947;27;20094;-81
2021/12/30 00:34:01;;;;;;;47.70;7.03;;;;;;;;;;5139805;27;20046;-81
2021/12/30 00:36:27;;;;;;;50.28;6.95;;;;;;;;;;5158133;27;20065;-81
2021/12/30 00:38:53;;;;;;;47.25;6.68;;;;;;;;;;5139451;27;20436;-81
2021/12/30 00:41:20;;;;;;;47.47;6.60;;;;;;;;;;5139861;27;20039;-81
2021/12/30 00:43:46;;;;;;;45.60;7.57;;;;;;;;;;5157961;27;20035;-80
2021/12/30 00:46:12;;;;;;;46.58;7.78;;;;;;;;;;5139586;27;20093;-81
2021/12/30 00:48:38;;;;;;;46.65;6.88;;;;;;;;;;5157975;27;20043;-80
2021/12/30 00:51:05;;;;;;;57.17;7.00;;;;;;;;;;5158015;27;20053;-80
2021/12/30 00:53:31;;;;;;;54.45;6.95;;;;;;;;;;5157423;27;20060;-81
2021/12/30 00:55:57;;;;;;;46.45;6.18;;;;;;;;;;5139622;27;20042;-80
2021/12/30 00:58:23;;;;;;;46.17;6.95;;;;;;;;;;5139386;27;20121;-80
2021/12/30 01:00:50;;;;;;;55.03;8.30;;;;;;;;;;5139095;27;20038;-80
2021/12/30 01:03:17;;;;;;;45.45;7.25;;;;;;;;;;5139372;27;20043;-81
2021/12/30 01:05:44;;;;;;;45.25;7.45;;;;;;;;;;5157704;27;20099;-80
2021/12/30 01:08:10;;;;;;;41.33;6.20;;;;;;;;;;5157540;27;20483;-80
2021/12/30 01:10:37;;;;;;;47.42;6.47;;;;;;;;;;5139328;27;20527;-81
2021/12/30 01:13:10;;;;;;;46.45;6.82;;;;;;;;;;5157535;27;20043;-81
2021/12/30 01:18:55;;;;;;;46.15;7.15;;;;;;;;;;5125540;27;20089;-81
2021/12/30 01:21:22;;;;;;;46.53;7.10;;;;;;;;;;5157409;27;20393;-81
2021/12/30 01:23:48;;;;;;;44.00;6.80;;;;;;;;;;5138690;27;20498;-81
2021/12/30 01:26:14;;;;;;;53.20;7.35;;;;;;;;;;5121984;27;20413;-79
2021/12/30 01:28:41;;;;;;;47.65;6.75;;;;;;;;;;5138533;27;20126;-81
2021/12/30 01:31:07;;;;;;;46.30;6.70;;;;;;;;;;5157127;27;20484;-81
2021/12/30 01:33:34;;;;;;;50.13;6.07;;;;;;;;;;5138231;27;20125;-80
2021/12/30 01:36:00;;;;;;;49.47;7.18;;;;;;;;;;5138466;27;20089;-80
2021/12/30 01:38:26;;;;;;;45.92;6.53;;;;;;;;;;5137936;27;20117;-80
2021/12/30 01:40:54;;;;;;;49.30;7.07;;;;;;;;;;5138731;27;20581;-81
2021/12/30 01:43:20;;;;;;;48.17;6.93;;;;;;;;;;5157040;27;20046;-81
2021/12/30 01:45:47;;;;;;;45.42;7.43;;;;;;;;;;5138277;27;20563;-80
2021/12/30 01:48:14;;;;;;;46.28;7.13;;;;;;;;;;5156748;27;20103;-81
2021/12/30 01:50:41;;;;;;;49.10;7.50;;;;;;;;;;5138341;27;20121;-81
2021/12/30 01:53:07;;;;;;;44.00;6.20;;;;;;;;;;5156923;27;20053;-81
2021/12/30 01:55:34;;;;;;;46.97;6.63;;;;;;;;;;5156321;27;20396;-80
2021/12/30 01:58:01;;;;;;;48.15;7.07;;;;;;;;;;5138337;27;20487;-81
2021/12/30 02:00:28;;;;;;;48.25;6.85;;;;;;;;;;5138332;27;20092;-81
2021/12/30 02:02:54;;;;;;;44.88;6.53;;;;;;;;;;5138117;27;20092;-81
2021/12/30 02:05:21;;;;;;;47.67;6.90;;;;;;;;;;5138036;27;20035;-80
2021/12/30 02:07:47;;;;;;;50.42;6.63;;;;;;;;;;5138185;27;20081;-81
2021/12/30 02:10:14;;;;;;;51.20;6.90;;;;;;;;;;5156603;27;20095;-80
2021/12/30 02:12:41;;;;;;;60.92;8.05;;;;;;;;;;5137997;27;20480;-79
2021/12/30 02:15:10;;;;;;;44.50;6.28;;;;;;;;;;5156319;27;20043;-81
2021/12/30 02:17:36;;;;;;;48.70;6.60;;;;;;;;;;5137480;27;20042;-81
2021/12/30 02:20:11;;;;;;;55.22;6.85;;;;;;;;;;5155994;27;20045;-81
2021/12/30 02:22:37;;;;;;;56.97;7.25;;;;;;;;;;5156277;27;20041;-81
2021/12/30 02:25:04;;;;;;;45.35;6.75;;;;;;;;;;5156121;27;20074;-81
2021/12/30 02:27:31;;;;;;;49.63;6.90;;;;;;;;;;5137598;27;20067;-81
2021/12/30 02:29:57;;;;;;;49.88;8.43;;;;;;;;;;5137627;27;20498;-80
2021/12/30 02:32:25;;;;;;;51.08;7.93;;;;;;;;;;5155994;27;20467;-80
2021/12/30 02:34:51;;;;;;;54.05;7.88;;;;;;;;;;5137686;27;20050;-80
2021/12/30 02:37:19;;;;;;;52.20;7.60;;;;;;;;;;5156067;27;20176;-81
2021/12/30 02:39:49;;;;;;;53.63;9.23;;;;;;;;;;5155836;27;20049;-80
2021/12/30 02:42:15;;;;;;;60.38;9.98;;;;;;;;;;5120066;27;20112;-81
2021/12/30 02:44:41;;;;;;;53.38;9.20;;;;;;;;;;5137292;27;20383;-81
2021/12/30 02:47:08;;;;;;;53.38;9.02;;;;;;;;;;5137181;27;20034;-80
2021/12/30 02:49:34;;;;;;;46.78;10.50;;;;;;;;;;5155843;27;20449;-81
2021/12/30 02:52:00;;;;;;;58.53;11.15;;;;;;;;;;5137230;27;20129;-80
2021/12/30 02:54:26;;;;;;;63.72;12.75;;;;;;;;;;5119773;27;20046;-80
2021/12/30 02:56:52;;;;;;;66.72;13.68;;;;;;;;;;5136944;27;20122;-81
2021/12/30 02:59:19;;;;;;;58.95;13.43;;;;;;;;;;5155383;27;20078;-81
2021/12/30 03:01:46;;;;;;;57.03;13.20;;;;;;;;;;5136974;27;20050;-81
2021/12/30 03:04:12;;;;;;;57.50;13.30;;;;;;;;;;5136878;27;20053;-81
2021/12/30 03:06:39;;;;;;;71.50;14.73;;;;;;;;;;5136896;27;20100;-81
2021/12/30 03:09:05;;;;;;;68.00;15.25;;;;;;;;;;5136663;27;20479;-81
2021/12/30 03:11:31;;;;;;;68.65;16.17;;;;;;;;;;5155296;27;20945;-81
2021/12/30 03:13:59;;;;;;;65.13;16.05;;;;;;;;;;5155107;27;20085;-81
2021/12/30 03:16:28;;;;;;;57.70;14.00;;;;;;;;;;5155008;27;20054;-81
2021/12/30 03:18:54;;;;;;;62.28;14.95;;;;;;;;;;5155091;27;20042;-81
2021/12/30 03:21:23;;;;;;;60.42;15.80;;;;;;;;;;5119878;27;20309;-81
2021/12/30 03:23:51;;;;;;;60.58;16.90;;;;;;;;;;5155018;27;20356;-81
2021/12/30 03:26:18;;;;;;;56.58;17.05;;;;;;;;;;5136401;27;20053;-81
2021/12/30 03:28:44;;;;;;;66.47;16.58;;;;;;;;;;5154831;27;20046;-81
2021/12/30 03:31:12;;;;;;;64.25;17.10;;;;;;;;;;5154807;27;20085;-81
2021/12/30 03:33:38;;;;;;;62.28;16.20;;;;;;;;;;5154897;27;20039;-81
2021/12/30 03:36:06;;;;;;;64.45;16.27;;;;;;;;;;5154738;27;20080;-81
2021/12/30 03:38:33;;;;;;;59.20;16.65;;;;;;;;;;5136444;27;20046;-81
2021/12/30 03:41:00;;;;;;;62.65;17.48;;;;;;;;;;5136450;27;20079;-81
2021/12/30 03:43:27;;;;;;;67.07;18.05;;;;;;;;;;5118970;27;20053;-81
2021/12/30 03:45:53;;;;;;;70.40;18.45;;;;;;;;;;5136050;27;20084;-81
2021/12/30 03:48:20;;;;;;;76.05;18.23;;;;;;;;;;5136054;27;20046;-81
2021/12/30 03:50:47;;;;;;;63.70;17.85;;;;;;;;;;5135871;27;20054;-81
2021/12/30 03:53:15;;;;;;;65.80;18.40;;;;;;;;;;5135914;27;20042;-79
2021/12/30 03:55:41;;;;;;;73.25;20.75;;;;;;;;;;5135456;27;20046;-81
2021/12/30 03:58:08;;;;;;;84.68;22.38;;;;;;;;;;5154168;27;20126;-80
2021/12/30 04:00:36;;;;;;;75.88;21.85;;;;;;;;;;5154124;27;20046;-81
2021/12/30 04:03:02;;;;;;;77.38;20.23;;;;;;;;;;5154363;27;20086;-80
2021/12/30 04:05:28;;;;;;;70.90;20.63;;;;;;;;;;5135897;27;20093;-81
2021/12/30 04:07:54;;;;;;;65.03;19.25;;;;;;;;;;5154381;27;20043;-80
2021/12/30 04:10:22;;;;;;;74.40;20.42;;;;;;;;;;5154232;27;20078;-80
2021/12/30 04:12:48;;;;;;;77.28;22.00;;;;;;;;;;5153945;27;20038;-81
2021/12/30 04:15:15;;;;;;;75.30;19.17;;;;;;;;;;5154303;27;20050;-79
2021/12/30 04:17:41;;;;;;;80.22;21.45;;;;;;;;;;5135679;27;20046;-81
2021/12/30 04:20:08;;;;;;;82.18;21.15;;;;;;;;;;5154247;27;20050;-81
2021/12/30 04:22:35;;;;;;;70.00;20.98;;;;;;;;;;5135769;27;20043;-81
2021/12/30 04:25:02;;;;;;;67.85;20.15;;;;;;;;;;5153853;27;20039;-81
2021/12/30 04:27:29;;;;;;;74.75;20.73;;;;;;;;;;5118516;27;20126;-81
2021/12/30 04:29:55;;;;;;;72.03;20.65;;;;;;;;;;5154050;27;20074;-81
2021/12/30 04:32:21;;;;;;;65.28;19.85;;;;;;;;;;5118710;27;20050;-80
2021/12/30 04:34:47;;;;;;;78.93;20.50;;;;;;;;;;5135360;27;20081;-80
2021/12/30 04:37:13;;;;;;;67.47;20.40;;;;;;;;;;5154109;27;20046;-81
2021/12/30 04:39:39;;;;;;;71.70;19.50;;;;;;;;;;5135493;27;20137;-81
2021/12/30 04:42:05;;;;;;;67.28;18.13;;;;;;;;;;5154210;27;20121;-81
2021/12/30 04:44:32;;;;;;;71.43;18.73;;;;;;;;;;5154211;27;20034;-81
2021/12/30 04:47:11;;;;;;;69.65;17.67;;;;;;;;;;5135644;27;20450;-81
2021/12/30 04:49:37;;;;;;;67.13;18.20;;;;;;;;;;5154122;27;20043;-82
2021/12/30 04:52:04;;;;;;;60.50;17.88;;;;;;;;;;5135536;27;20467;-80
2021/12/30 04:54:30;;;;;;;73.45;18.15;;;;;;;;;;5153790;27;20055;-81
2021/12/30 04:56:56;;;;;;;77.35;18.77;;;;;;;;;;5153775;27;20039;-81
2021/12/30 04:59:23;;;;;;;79.10;18.30;;;;;;;;;;5135730;27;20041;-82
2021/12/30 05:01:49;;;;;;;68.55;17.52;;;;;;;;;;5153796;27;20145;-81
2021/12/30 05:04:15;;;;;;;76.25;18.27;;;;;;;;;;5153737;27;20125;-82
2021/12/30 05:06:41;;;;;;;74.28;16.65;;;;;;;;;;5153849;27;20080;-81
2021/12/30 05:09:08;;;;;;;63.28;17.83;;;;;;;;;;5153987;27;20046;-81
2021/12/30 05:11:41;;;;;;;80.88;19.33;;;;;;;;;;5135913;27;20053;-80
2021/12/30 05:14:11;;;;;;;73.35;18.25;;;;;;;;;;5138981;27;20043;-82
2021/12/30 05:16:38;;;;;;;67.78;17.02;;;;;;;;;;5138865;27;20074;-81
2021/12/30 05:19:04;;;;;;;68.65;17.48;;;;;;;;;;5157249;27;20075;-81
2021/12/30 05:21:30;;;;;;;85.47;20.40;;;;;;;;;;5157465;27;20126;-81
2021/12/30 05:23:56;;;;;;;74.97;18.45;;;;;;;;;;5139399;27;20126;-82
2021/12/30 05:26:27;;;;;;;65.00;18.05;;;;;;;;;;5157205;27;20038;-82
2021/12/30 05:28:53;;;;;;;73.97;17.75;;;;;;;;;;5157482;27;20043;-82
2021/12/30 05:31:19;;;;;;;74.57;19.27;;;;;;;;;;5138923;27;20049;-81
2021/12/30 05:33:45;;;;;;;80.13;18.88;;;;;;;;;;5157048;27;20038;-83
2021/12/30 05:36:11;;;;;;;71.85;17.90;;;;;;;;;;5157007;27;20425;-82
2021/12/30 05:38:37;;;;;;;84.07;20.25;;;;;;;;;;5157293;27;20035;-82
2021/12/30 05:41:03;;;;;;;69.05;17.77;;;;;;;;;;5156934;27;20125;-83
2021/12/30 05:43:30;;;;;;;68.72;18.63;;;;;;;;;;5138761;27;20384;-82
2021/12/30 05:45:56;;;;;;;66.38;19.77;;;;;;;;;;5157070;27;20080;-82
2021/12/30 05:48:22;;;;;;;70.85;19.77;;;;;;;;;;5157047;27;20071;-79
2021/12/30 05:50:48;;;;;;;67.43;20.42;;;;;;;;;;5138785;27;20058;-81
2021/12/30 05:53:14;;;;;;;64.45;19.27;;;;;;;;;;5156827;27;20532;-82
2021/12/30 05:55:40;;;;;;;61.22;19.27;;;;;;;;;;5156696;27;20129;-82
2021/12/30 05:58:06;;;;;;;60.35;18.60;;;;;;;;;;5156882;27;20074;-82
2021/12/30 06:00:33;;;;;;;54.95;16.60;;;;;;;;;;5138453;27;20082;-82
2021/12/30 06:02:59;;;;;;;42.78;16.23;;;;;;;;;;5138412;27;20122;-81
2021/12/30 06:05:26;;;;;;;46.95;17.52;;;;;;;;;;5121479;27;20471;-83
2021/12/30 06:07:52;;;;;;;50.00;17.33;;;;;;;;;;5156853;27;20121;-80
2021/12/30 06:10:18;;;;;;;39.25;15.88;;;;;;;;;;5156599;27;20452;-81
2021/12/30 06:12:46;;;;;;;40.90;15.32;;;;;;;;;;5121076;27;20078;-82
2021/12/30 06:15:13;;;;;;;42.80;15.82;;;;;;;;;;5137965;27;20042;-81
2021/12/30 06:17:39;;;;;;;41.80;15.52;;;;;;;;;;5137941;27;20068;-82
2021/12/30 06:20:06;;;;;;;38.35;14.27;;;;;;;;;;5156775;27;20042;-81
2021/12/30 06:22:32;;;;;;;39.30;15.32;;;;;;;;;;5156136;27;20041;-81
2021/12/30 06:24:58;;;;;;;38.28;15.50;;;;;;;;;;5137987;27;20031;-82
2021/12/30 06:27:24;;;;;;;38.17;14.40;;;;;;;;;;5156271;27;20113;-81
2021/12/30 06:29:51;;;;;;;35.47;14.45;;;;;;;;;;5156123;27;20047;-80
2021/12/30 06:32:17;;;;;;;43.75;15.50;;;;;;;;;;5138262;27;20043;-80
2021/12/30 06:34:43;;;;;;;51.15;16.33;;;;;;;;;;5137932;27;20471;-82
2021/12/30 06:37:11;;;;;;;55.28;17.02;;;;;;;;;;5156389;27;20125;-83
2021/12/30 06:39:38;;;;;;;46.60;15.48;;;;;;;;;;5156275;27;20091;-82
2021/12/30 06:42:04;;;;;;;46.45;15.93;;;;;;;;;;5137722;27;20546;-80
2021/12/30 06:44:30;;;;;;;48.92;16.00;;;;;;;;;;5137659;27;20091;-81
2021/12/30 06:46:59;;;;;;;56.38;17.95;;;;;;;;;;5137735;27;20172;-82
2021/12/30 06:49:25;;;;;;;53.63;17.80;;;;;;;;;;5137759;27;20082;-80
2021/12/30 06:51:51;;;;;;;74.30;20.85;;;;;;;;;;5155689;27;20083;-83
2021/12/30 06:54:18;;;;;;;69.35;19.75;;;;;;;;;;5136876;27;20130;-82
2021/12/30 06:56:44;;;;;;;60.65;19.40;;;;;;;;;;5137104;27;20186;-81
2021/12/30 06:59:14;;;;;;;55.75;18.35;;;;;;;;;;5155419;27;20471;-81
2021/12/30 07:01:41;;;;;;;69.70;19.75;;;;;;;;;;5155738;27;20364;-83
2021/12/30 07:04:07;;;;;;;73.15;21.13;;;;;;;;;;5149268;27;20034;-82
2021/12/30 07:06:34;;;;;;;74.57;22.35;;;;;;;;;;5124875;27;20038;-81
2021/12/30 07:09:00;;;;;;;71.13;22.48;;;;;;;;;;5155492;27;20046;-80
2021/12/30 07:11:26;;;;;;;72.53;20.42;;;;;;;;;;5154280;27;20042;-81
2021/12/30 07:13:52;;;;;;;64.13;20.63;;;;;;;;;;5154904;27;20139;-80
2021/12/30 07:16:18;;;;;;;72.90;21.67;;;;;;;;;;5155113;27;20435;-82
2021/12/30 07:18:44;;;;;;;67.18;21.42;;;;;;;;;;5154708;27;20038;-81
2021/12/30 07:21:10;;;;;;;71.30;20.08;;;;;;;;;;5154727;27;20125;-78
2021/12/30 07:23:36;;;;;;;72.40;20.83;;;;;;;;;;5154578;27;20133;-81
2021/12/30 07:26:03;;;;;;;57.35;18.05;;;;;;;;;;5154807;27;20034;-81
2021/12/30 07:28:29;;;;;;;53.50;18.05;;;;;;;;;;5153992;27;20483;-80
2021/12/30 07:30:55;;;;;;;50.42;17.83;;;;;;;;;;5135962;27;20050;-79
2021/12/30 07:33:21;;;;;;;53.55;17.92;;;;;;;;;;5154744;27;20038;-80
2021/12/30 07:35:47;;;;;;;47.08;15.90;;;;;;;;;;5153866;27;20038;-81
2021/12/30 07:38:14;;;;;;;44.03;14.75;;;;;;;;;;5154681;27;20095;-81
2021/12/30 07:40:40;;;;;;;48.10;15.18;;;;;;;;;;5154557;27;20054;-82
2021/12/30 07:43:06;;;;;;;37.25;13.55;;;;;;;;;;5154547;27;20042;-81
2021/12/30 07:45:32;;;;;;;39.35;13.70;;;;;;;;;;5154714;27;20047;-82
2021/12/30 07:47:58;;;;;;;30.00;12.43;;;;;;;;;;5154506;27;20130;-79
2021/12/30 07:50:25;;;;;;;30.60;12.25;;;;;;;;;;5154426;27;20081;-80
2021/12/30 07:52:53;;;;;;;26.92;11.85;;;;;;;;;;5154258;27;20039;-81
2021/12/30 07:55:20;;;;;;;32.92;12.77;;;;;;;;;;5154595;27;20043;-82
2021/12/30 07:57:46;;;;;;;33.50;13.82;;;;;;;;;;5135802;27;20506;-83
2021/12/30 08:00:14;;;;;;;28.33;12.60;;;;;;;;;;5135799;27;20050;-82
2021/12/30 08:02:42;;;;;;;26.48;12.55;;;;;;;;;;5135145;27;20046;-82
2021/12/30 08:05:09;;;;;;;22.23;11.65;;;;;;;;;;5154596;27;20129;-81
2021/12/30 08:07:35;;;;;;;30.13;11.88;;;;;;;;;;5135730;27;20121;-79
2021/12/30 08:10:01;;;;;;;23.40;10.70;;;;;;;;;;5153784;27;20038;-81
2021/12/30 08:12:27;;;;;;;31.65;11.80;;;;;;;;;;5154379;27;20046;-80
2021/12/30 08:14:54;;;;;;;29.27;10.82;;;;;;;;;;5154102;27;20183;-79
2021/12/30 08:17:20;;;;;;;25.27;11.20;;;;;;;;;;5153975;27;20051;-80
2021/12/30 08:19:47;;;;;;;25.98;10.52;;;;;;;;;;5135468;27;20086;-81
2021/12/30 08:22:14;;;;;;;19.83;9.50;;;;;;;;;;5135768;27;20070;-80
2021/12/30 08:24:40;;;;;;;22.50;9.63;;;;;;;;;;5153939;27;20039;-79
2021/12/30 08:27:08;;;;;;;15.88;8.25;;;;;;;;;;5154420;27;20439;-81
2021/12/30 08:29:34;;;;;;;16.17;7.88;;;;;;;;;;5154096;27;20043;-82
2021/12/30 08:32:00;;;;;;;16.05;7.53;;;;;;;;;;5135704;27;20121;-80
2021/12/30 08:34:26;;;;;;;15.77;7.43;;;;;;;;;;5135565;27;20084;-81
2021/12/30 08:36:52;;;;;;;14.80;6.60;;;;;;;;;;5153842;27;20046;-80
2021/12/30 08:39:18;;;;;;;14.30;7.13;;;;;;;;;;5153912;27;20043;-80
2021/12/30 08:41:45;;;;;;;13.27;6.70;;;;;;;;;;5154032;27;20091;-78
2021/12/30 08:44:11;;;;;;;10.50;6.25;;;;;;;;;;5154167;27;20196;-81
2021/12/30 08:46:37;;;;;;;12.02;6.22;;;;;;;;;;5137532;27;20125;-79
2021/12/30 08:49:03;;;;;;;10.55;5.30;;;;;;;;;;5139628;27;20042;-79
2021/12/30 08:51:30;;;;;;;10.82;5.65;;;;;;;;;;5157787;27;20095;-79
2021/12/30 08:53:56;;;;;;;8.90;4.82;;;;;;;;;;5138872;27;20141;-79
2021/12/30 08:56:23;;;;;;;10.30;4.95;;;;;;;;;;5157764;27;20488;-82
2021/12/30 08:58:49;;;;;;;10.07;5.00;;;;;;;;;;5157649;27;20085;-81
2021/12/30 09:01:15;;;;;;;10.77;5.63;;;;;;;;;;5157990;27;20511;-80
2021/12/30 09:03:41;;;;;;;10.35;5.13;;;;;;;;;;5139343;27;20126;-78
2021/12/30 09:06:07;;;;;;;8.88;5.30;;;;;;;;;;5139334;27;20118;-80
2021/12/30 09:08:33;;;;;;;9.30;4.00;;;;;;;;;;5157657;27;20046;-82
2021/12/30 09:11:00;;;;;;;8.98;4.60;;;;;;;;;;5139286;27;20054;-81
2021/12/30 09:13:26;;;;;;;8.93;4.50;;;;;;;;;;5157125;27;20038;-81
2021/12/30 09:15:52;;;;;;;11.07;5.28;;;;;;;;;;5157312;27;20045;-81
2021/12/30 09:18:19;;;;;;;11.35;5.30;;;;;;;;;;5157208;27;20494;-81
2021/12/30 09:20:45;;;;;;;10.23;5.50;;;;;;;;;;5157050;27;20432;-81
2021/12/30 09:23:15;;;;;;;10.10;5.55;;;;;;;;;;5138604;27;20099;-80
2021/12/30 09:25:42;;;;;;;13.32;6.70;;;;;;;;;;5157195;27;20074;-80
2021/12/30 09:28:12;;;;;;;12.45;6.93;;;;;;;;;;5157208;27;20133;-81
2021/12/30 09:30:38;;;;;;;13.35;7.30;;;;;;;;;;5157104;27;20043;-79
2021/12/30 09:33:04;;;;;;;13.18;7.18;;;;;;;;;;5156921;27;20042;-81
2021/12/30 09:35:31;;;;;;;13.27;7.63;;;;;;;;;;5121250;27;20054;-81
2021/12/30 09:37:58;;;;;;;13.05;7.85;;;;;;;;;;5157077;27;20066;-82
2021/12/30 09:40:24;;;;;;;15.63;8.23;;;;;;;;;;5138541;27;20047;-82
2021/12/30 09:42:53;;;;;;;10.13;7.15;;;;;;;;;;5156819;27;20050;-81
2021/12/30 09:45:20;;;;;;;19.80;10.20;;;;;;;;;;5156736;27;20041;-78
2021/12/30 09:47:53;;;;;;;15.77;9.05;;;;;;;;;;5156503;27;20042;-80
2021/12/30 09:50:22;;;;;;;14.55;8.70;;;;;;;;;;5138529;27;20460;-80
2021/12/30 09:52:48;;;;;;;15.57;9.68;;;;;;;;;;5121063;27;20123;-82
2021/12/30 09:55:14;;;;;;;14.27;9.27;;;;;;;;;;5156517;27;20568;-81
2021/12/30 09:57:41;;;;;;;15.60;9.40;;;;;;;;;;5155674;27;20122;-83
2021/12/30 10:00:09;;;;;;;13.20;8.63;;;;;;;;;;5137992;27;20125;-81
2021/12/30 10:02:35;;;;;;;18.35;10.35;;;;;;;;;;5156410;27;20523;-82
2021/12/30 10:05:12;;;;;;;18.17;9.27;;;;;;;;;;5156932;27;20123;-81
2021/12/30 10:07:39;;;;;;;20.63;10.30;;;;;;;;;;5156583;27;20042;-80
2021/12/30 10:10:24;;;;;;;16.58;10.80;;;;;;;;;;5138197;27;20173;-81
2021/12/30 10:12:51;;;;;;;18.80;10.60;;;;;;;;;;5156014;27;20038;-81
2021/12/30 10:15:17;;;;;;;12.10;9.02;;;;;;;;;;5155491;27;20483;-80
2021/12/30 10:17:43;;;;;;;14.00;7.78;;;;;;;;;;5153822;27;20077;-83
2021/12/30 10:20:18;;;;;;;12.40;8.07;;;;;;;;;;5102029;27;20463;-81
2021/12/30 10:22:46;;;;;;;12.68;8.73;;;;;;;;;;5131580;27;20123;-84
2021/12/30 10:25:25;;;;;;;11.50;7.00;;;;;;;;;;5072113;28;20546;-81
2021/12/30 10:27:52;;;;;;;14.13;7.57;;;;;;;;;;5058249;28;20597;-81
2021/12/30 10:30:35;;;;;;;16.30;8.55;;;;;;;;;;5079697;28;20060;-80
2021/12/30 10:33:14;;;;;;;14.35;7.60;;;;;;;;;;5054330;28;21988;-80
2021/12/30 10:35:41;;;;;;;15.25;7.55;;;;;;;;;;5066193;28;20455;-83
2021/12/30 10:38:11;;;;;;;11.75;6.82;;;;;;;;;;5054582;28;20037;-81
2021/12/30 10:40:43;;;;;;;14.65;7.15;;;;;;;;;;5083349;28;20087;-82
2021/12/30 10:43:36;;;;;;;16.02;7.28;;;;;;;;;;5073379;28;20059;-82
2021/12/30 10:46:05;;;;;;;15.13;6.57;;;;;;;;;;5072054;28;20070;-81
2021/12/30 10:48:32;;;;;;;12.73;5.38;;;;;;;;;;5048228;28;20119;-81
2021/12/30 10:51:10;;;;;;;12.35;6.43;;;;;;;;;;5088822;28;20064;-81
2021/12/30 10:53:37;;;;;;;15.93;6.50;;;;;;;;;;5089578;28;20048;-82
2021/12/30 10:56:22;;;;;;;17.63;6.65;;;;;;;;;;5099432;28;20473;-82
2021/12/30 10:58:48;;;;;;;15.35;6.30;;;;;;;;;;5111616;28;20055;-82
2021/12/30 11:01:18;;;;;;;18.70;6.25;;;;;;;;;;5112004;28;20095;-82
2021/12/30 11:03:55;;;;;;;16.60;5.63;;;;;;;;;;5111373;28;20051;-82
2021/12/30 11:06:21;;;;;;;14.65;5.70;;;;;;;;;;5111922;28;20069;-83
2021/12/30 11:08:49;;;;;;;18.02;5.50;;;;;;;;;;5093879;28;20082;-83
2021/12/30 11:11:28;;;;;;;17.83;5.53;;;;;;;;;;5109874;28;20495;-83
2021/12/30 11:13:59;;;;;;;18.65;5.60;;;;;;;;;;5111729;28;20043;-83
2021/12/30 11:16:25;;;;;;;18.38;6.30;;;;;;;;;;5111453;28;20035;-83
2021/12/30 11:18:51;;;;;;;20.85;5.97;;;;;;;;;;5112504;28;20124;-82
2021/12/30 11:21:36;;;;;;;21.17;5.70;;;;;;;;;;5112628;28;20169;-82
2021/12/30 11:24:03;;;;;;;19.77;5.40;;;;;;;;;;5112969;28;20519;-83
2021/12/30 11:26:29;;;;;;;24.23;5.78;;;;;;;;;;5113505;28;20088;-84
2021/12/30 11:28:56;;;;;;;17.33;4.70;;;;;;;;;;5112094;28;20067;-82
2021/12/30 11:31:23;;;;;;;20.15;4.85;;;;;;;;;;5113436;28;20043;-83
2021/12/30 11:33:49;;;;;;;25.13;5.40;;;;;;;;;;5095620;28;20055;-83
2021/12/30 11:36:17;;;;;;;29.25;6.50;;;;;;;;;;5112640;28;20096;-83
2021/12/30 11:38:43;;;;;;;24.10;5.72;;;;;;;;;;5112334;28;20086;-83
2021/12/30 11:41:16;;;;;;;21.35;5.82;;;;;;;;;;5111595;28;20118;-84
2021/12/30 11:43:44;;;;;;;21.70;5.07;;;;;;;;;;5111923;28;20048;-84
2021/12/30 11:46:28;;;;;;;23.83;5.13;;;;;;;;;;5111574;28;20046;-83
2021/12/30 11:48:57;;;;;;;18.48;5.40;;;;;;;;;;5112213;28;20385;-83
2021/12/30 11:51:23;;;;;;;26.10;5.63;;;;;;;;;;5112613;28;20046;-82
2021/12/30 11:53:52;;;;;;;26.15;5.80;;;;;;;;;;5117803;27;20134;-83
2021/12/30 11:56:22;;;;;;;21.70;4.93;;;;;;;;;;5115615;27;20070;-82
2021/12/30 11:58:48;;;;;;;30.10;5.72;;;;;;;;;;5134159;27;20046;-83
2021/12/30 12:01:16;;;;;;;21.80;5.88;;;;;;;;;;5134023;27;20046;-82
2021/12/30 12:04:02;;;;;;;29.63;5.90;;;;;;;;;;5133974;27;20066;-83
2021/12/30 12:06:31;;;;;;;28.63;6.03;;;;;;;;;;5133508;27;20043;-83
2021/12/30 12:09:05;;;;;;;29.10;5.57;;;;;;;;;;5133000;28;20039;-82
2021/12/30 12:11:52;;;;;;;23.98;5.53;;;;;;;;;;5115242;28;20058;-82
2021/12/30 12:14:20;;;;;;;24.90;5.90;;;;;;;;;;5115931;28;20108;-83
2021/12/30 12:16:50;;;;;;;30.27;5.78;;;;;;;;;;5133831;28;20107;-83
2021/12/30 12:19:18;;;;;;;27.98;5.50;;;;;;;;;;5133749;28;20499;-83
2021/12/30 12:21:46;;;;;;;25.35;5.28;;;;;;;;;;5136722;27;20053;-81
2021/12/30 12:24:21;;;;;;;31.40;4.88;;;;;;;;;;5138765;27;20046;-82
2021/12/30 12:26:54;;;;;;;22.98;4.53;;;;;;;;;;5120437;27;20039;-83
2021/12/30 12:29:25;;;;;;;21.30;5.10;;;;;;;;;;5120342;27;20054;-83
2021/12/30 12:31:58;;;;;;;26.55;6.10;;;;;;;;;;5120134;27;20383;-83
2021/12/30 12:34:33;;;;;;;31.65;5.80;;;;;;;;;;5138254;27;20487;-82
2021/12/30 12:36:59;;;;;;;26.42;6.10;;;;;;;;;;5120675;27;20085;-84
2021/12/30 12:39:36;;;;;;;23.45;5.72;;;;;;;;;;5138186;27;20039;-83
2021/12/30 12:42:03;;;;;;;29.58;6.20;;;;;;;;;;5120324;27;20043;-81
2021/12/30 12:44:29;;;;;;;31.35;6.30;;;;;;;;;;5102309;27;20403;-83
2021/12/30 12:46:56;;;;;;;28.67;6.25;;;;;;;;;;5103144;27;20090;-82
2021/12/30 12:49:34;;;;;;;30.88;5.78;;;;;;;;;;5138472;27;20039;-83
2021/12/30 12:52:02;;;;;;;26.80;5.45;;;;;;;;;;5120217;27;20045;-82
2021/12/30 12:54:34;;;;;;;30.15;6.18;;;;;;;;;;5119479;27;20459;-83
2021/12/30 12:57:12;;;;;;;28.42;6.22;;;;;;;;;;5119828;27;20089;-84
2021/12/30 12:59:39;;;;;;;30.77;6.05;;;;;;;;;;5119853;27;20083;-83
2021/12/30 13:02:09;;;;;;;32.60;6.32;;;;;;;;;;5138526;27;20043;-83
2021/12/30 13:04:35;;;;;;;26.83;5.85;;;;;;;;;;5137617;27;20140;-82
2021/12/30 13:07:15;;;;;;;28.02;6.13;;;;;;;;;;5120254;27;20047;-83
2021/12/30 13:09:45;;;;;;;35.13;6.32;;;;;;;;;;5138444;27;20031;-83
2021/12/30 13:12:11;;;;;;;30.70;6.00;;;;;;;;;;5138372;27;20429;-84
2021/12/30 13:14:42;;;;;;;30.70;6.25;;;;;;;;;;5138384;27;20043;-83
2021/12/30 13:17:10;;;;;;;32.95;7.05;;;;;;;;;;5138190;27;20118;-83
2021/12/30 13:19:38;;;;;;;27.08;6.40;;;;;;;;;;5137793;27;20045;-83
2021/12/30 13:22:05;;;;;;;29.17;5.97;;;;;;;;;;5138299;27;20065;-83
2021/12/30 13:24:36;;;;;;;28.35;5.95;;;;;;;;;;5120659;27;20077;-83
2021/12/30 13:27:07;;;;;;;33.55;6.28;;;;;;;;;;5120512;27;20057;-83
2021/12/30 13:29:38;;;;;;;35.97;6.45;;;;;;;;;;5119358;27;20065;-83
2021/12/30 13:32:16;;;;;;;26.73;5.65;;;;;;;;;;5136378;27;20381;-83
2021/12/30 13:35:12;;;;;;;26.50;6.68;;;;;;;;;;5118805;27;20182;-82
2021/12/30 13:37:43;;;;;;;33.70;7.95;;;;;;;;;;5115869;27;20388;-84
2021/12/30 13:40:28;;;;;;;30.63;5.97;;;;;;;;;;5119111;27;20119;-83
2021/12/30 13:42:54;;;;;;;25.05;6.03;;;;;;;;;;5137961;27;20047;-83
2021/12/30 13:45:25;;;;;;;29.45;5.85;;;;;;;;;;5137548;27;20043;-84
2021/12/30 13:47:52;;;;;;;25.63;5.45;;;;;;;;;;5119775;27;20124;-82
2021/12/30 13:50:19;;;;;;;26.98;5.75;;;;;;;;;;5119256;27;20362;-84
2021/12/30 13:52:46;;;;;;;29.38;6.13;;;;;;;;;;5137908;27;20039;-82
2021/12/30 13:55:12;;;;;;;29.30;6.32;;;;;;;;;;5114350;28;20051;-82
2021/12/30 13:57:39;;;;;;;24.58;5.60;;;;;;;;;;5116438;28;20047;-83
2021/12/30 14:00:07;;;;;;;32.08;6.60;;;;;;;;;;5118140;28;20044;-83
2021/12/30 14:02:33;;;;;;;36.58;6.03;;;;;;;;;;5118030;28;20035;-83
2021/12/30 14:05:07;;;;;;;32.38;6.47;;;;;;;;;;5097054;28;20048;-83
2021/12/30 14:07:39;;;;;;;31.58;6.18;;;;;;;;;;5097332;28;20056;-82
2021/12/30 14:10:05;;;;;;;31.35;7.18;;;;;;;;;;5115103;28;20055;-83
2021/12/30 14:12:32;;;;;;;35.75;6.80;;;;;;;;;;5116981;28;20380;-82
2021/12/30 14:15:17;;;;;;;30.70;6.20;;;;;;;;;;5113551;28;20373;-82
2021/12/30 14:17:44;;;;;;;26.00;6.30;;;;;;;;;;5119142;27;20039;-82
2021/12/30 14:20:12;;;;;;;35.80;7.07;;;;;;;;;;5097463;28;20044;-82
2021/12/30 14:22:41;;;;;;;27.90;7.07;;;;;;;;;;5115539;28;20047;-82
2021/12/30 14:25:25;;;;;;;28.98;6.40;;;;;;;;;;5076490;28;20389;-83
2021/12/30 14:27:51;;;;;;;32.80;7.05;;;;;;;;;;5096627;27;20039;-83
2021/12/30 14:30:17;;;;;;;25.40;6.43;;;;;;;;;;5116313;28;20154;-83
2021/12/30 14:32:43;;;;;;;25.95;6.47;;;;;;;;;;5114290;28;20044;-82
2021/12/30 14:35:10;;;;;;;27.13;6.60;;;;;;;;;;5114756;27;20050;-81